Time;durP1;ratioP1;P1;durP2;ratioP2;P2;SDS_P1;SDS_P2;PMS_P1;PMS_P2;Temp;Humidity;BMP_temperature;BMP_pressure;BME280_temperature;BME280_humidity;BME280_pressure;Samples;Min_cycle;Max_cycle;Signal;HPM_P1;HPM_P2
2022/03/12 00:02:07;;;;;;;7.30;1.08;;;;;;;;;;5054161;28;20045;-69
2022/03/12 00:04:33;;;;;;;11.02;0.90;;;;;;;;;;5054277;28;20075;-69
2022/03/12 00:07:00;;;;;;;4.13;0.95;;;;;;;;;;5053935;28;20056;-69
2022/03/12 00:09:27;;;;;;;5.13;1.55;;;;;;;;;;5052878;28;20558;-69
2022/03/12 00:11:58;;;;;;;7.95;1.00;;;;;;;;;;5054173;28;20057;-69
2022/03/12 00:14:25;;;;;;;4.35;1.35;;;;;;;;;;5054095;28;20049;-69
2022/03/12 00:16:52;;;;;;;9.15;1.35;;;;;;;;;;5053870;28;20053;-69
2022/03/12 00:19:20;;;;;;;6.10;1.10;;;;;;;;;;5053654;28;20081;-69
2022/03/12 00:21:48;;;;;;;3.83;0.80;;;;;;;;;;5053733;28;20049;-69
2022/03/12 00:24:15;;;;;;;3.53;0.80;;;;;;;;;;5053960;28;20056;-69
2022/03/12 00:26:43;;;;;;;4.28;0.77;;;;;;;;;;5053580;28;20489;-69
2022/03/12 00:29:14;;;;;;;4.88;0.70;;;;;;;;;;5053897;28;20059;-69
2022/03/12 00:31:45;;;;;;;4.75;0.57;;;;;;;;;;5053746;28;20068;-69
2022/03/12 00:34:13;;;;;;;3.05;0.40;;;;;;;;;;5053552;28;20408;-69
2022/03/12 00:36:39;;;;;;;2.78;0.57;;;;;;;;;;5053320;28;20541;-70
2022/03/12 00:39:07;;;;;;;1.70;0.30;;;;;;;;;;5053716;28;20045;-70
2022/03/12 00:41:36;;;;;;;1.38;0.22;;;;;;;;;;5053364;28;20045;-70
2022/03/12 00:44:03;;;;;;;1.73;0.50;;;;;;;;;;5053745;28;20044;-70
2022/03/12 00:46:29;;;;;;;1.83;0.47;;;;;;;;;;5053578;28;20111;-70
2022/03/12 00:48:56;;;;;;;2.08;0.50;;;;;;;;;;5053425;28;20044;-70
2022/03/12 00:51:22;;;;;;;2.20;0.45;;;;;;;;;;5053409;28;20049;-70
2022/03/12 00:53:49;;;;;;;3.22;0.50;;;;;;;;;;5053176;28;20056;-70
2022/03/12 00:56:15;;;;;;;3.28;0.32;;;;;;;;;;5053328;28;20123;-70
2022/03/12 00:58:45;;;;;;;2.88;0.47;;;;;;;;;;5053223;28;20053;-69
2022/03/12 01:01:12;;;;;;;3.45;0.40;;;;;;;;;;5053242;28;20135;-69
2022/03/12 01:03:40;;;;;;;4.10;0.38;;;;;;;;;;5053215;28;20497;-69
2022/03/12 01:06:06;;;;;;;4.10;0.70;;;;;;;;;;5052603;28;20049;-69
2022/03/12 01:08:33;;;;;;;3.35;0.30;;;;;;;;;;5053163;28;20055;-70
2022/03/12 01:11:03;;;;;;;2.55;0.52;;;;;;;;;;5047672;28;20103;-70
2022/03/12 01:13:30;;;;;;;2.47;1.15;;;;;;;;;;5051440;28;20053;-70
2022/03/12 01:15:57;;;;;;;5.15;0.60;;;;;;;;;;5050933;28;20053;-70
2022/03/12 01:18:24;;;;;;;4.07;0.80;;;;;;;;;;5052542;28;20096;-70
2022/03/12 01:20:51;;;;;;;2.13;0.55;;;;;;;;;;5052398;28;20843;-70
2022/03/12 01:23:18;;;;;;;4.65;0.80;;;;;;;;;;5052505;28;20052;-70
2022/03/12 01:25:46;;;;;;;3.75;0.60;;;;;;;;;;5052495;28;20099;-70
2022/03/12 01:28:13;;;;;;;2.72;1.08;;;;;;;;;;5052412;28;20084;-70
2022/03/12 01:30:41;;;;;;;2.63;0.70;;;;;;;;;;5052552;28;20342;-70
2022/03/12 01:33:07;;;;;;;2.83;0.70;;;;;;;;;;5052660;28;20071;-70
2022/03/12 01:35:34;;;;;;;4.80;0.70;;;;;;;;;;5052273;28;20049;-70
2022/03/12 01:38:01;;;;;;;2.30;0.60;;;;;;;;;;5052340;28;20053;-70
2022/03/12 01:40:28;;;;;;;1.17;0.57;;;;;;;;;;5052438;28;20053;-70
2022/03/12 01:42:54;;;;;;;3.40;1.02;;;;;;;;;;5052129;28;20501;-70
2022/03/12 01:45:27;;;;;;;2.40;0.70;;;;;;;;;;5052325;28;20045;-70
2022/03/12 01:47:59;;;;;;;4.03;0.70;;;;;;;;;;5052150;28;20069;-70
2022/03/12 01:50:28;;;;;;;3.97;0.73;;;;;;;;;;5051980;28;20045;-70
2022/03/12 01:52:58;;;;;;;4.60;1.08;;;;;;;;;;5051998;28;20086;-70
2022/03/12 01:55:30;;;;;;;4.55;0.70;;;;;;;;;;5052506;28;20479;-70
2022/03/12 01:57:58;;;;;;;3.03;0.73;;;;;;;;;;5052187;28;20104;-71
2022/03/12 02:00:26;;;;;;;3.22;0.90;;;;;;;;;;5050569;28;20135;-71
2022/03/12 02:02:54;;;;;;;2.13;0.38;;;;;;;;;;5051815;28;20052;-70
2022/03/12 02:05:23;;;;;;;1.83;0.40;;;;;;;;;;5051649;28;20049;-70
2022/03/12 02:07:49;;;;;;;5.97;1.10;;;;;;;;;;5051679;28;20186;-70
2022/03/12 02:10:18;;;;;;;2.15;0.47;;;;;;;;;;5051919;28;20045;-70
2022/03/12 02:12:45;;;;;;;4.10;0.80;;;;;;;;;;5051637;28;20471;-70
2022/03/12 02:15:11;;;;;;;2.25;0.30;;;;;;;;;;5051717;28;20049;-70
2022/03/12 02:17:38;;;;;;;1.17;0.32;;;;;;;;;;5051885;28;20053;-71
2022/03/12 02:20:05;;;;;;;4.15;0.77;;;;;;;;;;5051625;28;20045;-70
2022/03/12 02:22:32;;;;;;;2.67;0.40;;;;;;;;;;5051300;28;20045;-70
2022/03/12 02:24:58;;;;;;;2.13;0.40;;;;;;;;;;5051898;28;20110;-70
2022/03/12 02:27:25;;;;;;;2.88;0.60;;;;;;;;;;5051607;28;20052;-71
2022/03/12 02:29:52;;;;;;;3.13;0.45;;;;;;;;;;5051513;28;20052;-70
2022/03/12 02:32:19;;;;;;;3.83;0.30;;;;;;;;;;5051116;28;20497;-70
2022/03/12 02:34:46;;;;;;;2.90;0.40;;;;;;;;;;5051672;28;20351;-70
2022/03/12 02:37:25;;;;;;;1.67;0.28;;;;;;;;;;5051666;28;20044;-70
2022/03/12 02:39:51;;;;;;;0.82;0.20;;;;;;;;;;5051806;28;20052;-70
2022/03/12 02:42:20;;;;;;;3.38;0.45;;;;;;;;;;5051348;28;20122;-71
2022/03/12 02:44:47;;;;;;;1.85;0.55;;;;;;;;;;5051434;28;20049;-70
2022/03/12 02:47:15;;;;;;;2.28;0.50;;;;;;;;;;5051285;28;20049;-71
2022/03/12 02:49:56;;;;;;;2.65;0.30;;;;;;;;;;5051465;28;20053;-72
2022/03/12 02:52:23;;;;;;;1.70;0.50;;;;;;;;;;5051530;28;20425;-71
2022/03/12 02:54:50;;;;;;;1.05;0.20;;;;;;;;;;5051415;28;20049;-71
2022/03/12 02:57:17;;;;;;;2.50;0.35;;;;;;;;;;5051199;28;20417;-71
2022/03/12 02:59:45;;;;;;;1.73;0.30;;;;;;;;;;5051198;28;20049;-72
2022/03/12 03:02:12;;;;;;;1.50;0.40;;;;;;;;;;5051470;28;20049;-72
2022/03/12 03:04:40;;;;;;;2.05;0.30;;;;;;;;;;5051330;28;20294;-72
2022/03/12 03:07:11;;;;;;;2.70;0.35;;;;;;;;;;5051172;28;20061;-72
2022/03/12 03:09:38;;;;;;;1.02;0.43;;;;;;;;;;5051183;28;20114;-72
2022/03/12 03:12:08;;;;;;;1.75;0.30;;;;;;;;;;5051115;28;20053;-72
2022/03/12 03:14:38;;;;;;;1.73;0.30;;;;;;;;;;5051306;28;20041;-71
2022/03/12 03:17:05;;;;;;;2.03;0.60;;;;;;;;;;5051107;28;20053;-71
2022/03/12 03:19:34;;;;;;;2.28;0.60;;;;;;;;;;5051329;28;20099;-71
2022/03/12 03:22:00;;;;;;;4.80;0.70;;;;;;;;;;5050109;28;20049;-71
2022/03/12 03:24:27;;;;;;;2.50;0.65;;;;;;;;;;5050892;28;20053;-70
2022/03/12 03:26:54;;;;;;;2.15;0.50;;;;;;;;;;5050961;28;20095;-70
2022/03/12 03:29:22;;;;;;;2.45;0.60;;;;;;;;;;5051290;28;20087;-70
2022/03/12 03:31:48;;;;;;;2.47;0.82;;;;;;;;;;5051183;28;20053;-70
2022/03/12 03:34:15;;;;;;;1.70;0.57;;;;;;;;;;5050960;28;20049;-70
2022/03/12 03:36:42;;;;;;;3.35;0.63;;;;;;;;;;5050935;28;20134;-70
2022/03/12 03:39:08;;;;;;;2.08;0.65;;;;;;;;;;5050819;28;20053;-70
2022/03/12 03:41:35;;;;;;;3.20;0.43;;;;;;;;;;5051127;28;20099;-69
2022/03/12 03:44:01;;;;;;;2.10;0.60;;;;;;;;;;5052274;28;20045;-70
2022/03/12 03:46:28;;;;;;;3.63;0.70;;;;;;;;;;5054732;28;20045;-70
2022/03/12 03:48:54;;;;;;;3.20;0.50;;;;;;;;;;5054238;28;20053;-70
2022/03/12 03:51:21;;;;;;;2.35;0.43;;;;;;;;;;5054333;28;20106;-70
2022/03/12 03:53:48;;;;;;;2.03;0.35;;;;;;;;;;5054405;28;20045;-70
2022/03/12 03:56:15;;;;;;;1.27;0.22;;;;;;;;;;5054520;28;20115;-69
2022/03/12 03:58:42;;;;;;;2.20;0.43;;;;;;;;;;5054391;28;20049;-69
2022/03/12 04:01:12;;;;;;;3.45;0.47;;;;;;;;;;5054446;28;20119;-70
2022/03/12 04:03:49;;;;;;;1.38;0.30;;;;;;;;;;5054655;28;20091;-69
2022/03/12 04:06:16;;;;;;;2.40;0.20;;;;;;;;;;5054170;28;20095;-69
2022/03/12 04:08:43;;;;;;;3.80;0.50;;;;;;;;;;5054267;28;20057;-69
2022/03/12 04:11:16;;;;;;;3.30;0.38;;;;;;;;;;5054182;28;20611;-69
2022/03/12 04:13:43;;;;;;;1.77;0.20;;;;;;;;;;5054075;28;20053;-70
2022/03/12 04:16:10;;;;;;;3.50;0.40;;;;;;;;;;5053869;28;20045;-70
2022/03/12 04:18:37;;;;;;;2.25;0.20;;;;;;;;;;5053964;28;20226;-70
2022/03/12 04:21:05;;;;;;;5.05;0.40;;;;;;;;;;5053652;28;20091;-70
2022/03/12 04:23:32;;;;;;;2.97;0.50;;;;;;;;;;5053833;28;20070;-70
2022/03/12 04:25:59;;;;;;;2.03;0.30;;;;;;;;;;5053950;28;20098;-70
2022/03/12 04:28:30;;;;;;;2.92;0.30;;;;;;;;;;5053606;28;20049;-70
2022/03/12 04:30:57;;;;;;;3.00;0.40;;;;;;;;;;5053505;28;20099;-70
2022/03/12 04:33:23;;;;;;;3.22;0.30;;;;;;;;;;5053385;28;20118;-70
2022/03/12 04:35:50;;;;;;;2.85;0.40;;;;;;;;;;5053518;28;20447;-70
2022/03/12 04:38:17;;;;;;;3.47;0.50;;;;;;;;;;5053607;28;20053;-70
2022/03/12 04:40:43;;;;;;;3.20;0.40;;;;;;;;;;5053704;28;20071;-70
2022/03/12 04:43:11;;;;;;;4.90;0.50;;;;;;;;;;5053400;28;20041;-70
2022/03/12 04:45:39;;;;;;;3.15;0.63;;;;;;;;;;5053544;28;20044;-70
2022/03/12 04:48:06;;;;;;;1.88;0.38;;;;;;;;;;5053253;28;20045;-70
2022/03/12 04:50:33;;;;;;;5.95;0.82;;;;;;;;;;5052036;28;20041;-70
2022/03/12 04:53:01;;;;;;;4.22;0.55;;;;;;;;;;5053116;28;20460;-70
2022/03/12 04:55:28;;;;;;;5.85;0.77;;;;;;;;;;5046533;28;20068;-70
2022/03/12 04:57:55;;;;;;;6.33;0.50;;;;;;;;;;5053296;28;20045;-71
2022/03/12 05:00:26;;;;;;;4.82;0.80;;;;;;;;;;5051954;28;20290;-70
2022/03/12 05:02:54;;;;;;;4.60;0.60;;;;;;;;;;5053215;28;20048;-70
2022/03/12 05:05:21;;;;;;;2.92;0.70;;;;;;;;;;5053009;28;20041;-70
2022/03/12 05:07:48;;;;;;;3.60;0.55;;;;;;;;;;5052870;28;20053;-69
2022/03/12 05:10:18;;;;;;;2.50;0.45;;;;;;;;;;5052888;28;20091;-69
2022/03/12 05:12:48;;;;;;;6.53;0.80;;;;;;;;;;5052669;28;20037;-69
2022/03/12 05:15:15;;;;;;;3.95;0.68;;;;;;;;;;5053026;28;20060;-69
2022/03/12 05:17:44;;;;;;;11.10;1.20;;;;;;;;;;5052944;28;20049;-70
2022/03/12 05:20:11;;;;;;;5.35;0.75;;;;;;;;;;5052960;28;20079;-70
2022/03/12 05:22:38;;;;;;;3.80;0.60;;;;;;;;;;5052600;28;20053;-69
2022/03/12 05:25:04;;;;;;;5.90;0.75;;;;;;;;;;5053117;28;20079;-69
2022/03/12 05:27:32;;;;;;;5.55;0.80;;;;;;;;;;5051179;28;20095;-69
2022/03/12 05:29:59;;;;;;;7.40;0.98;;;;;;;;;;5052574;28;20045;-69
2022/03/12 05:32:25;;;;;;;11.63;1.20;;;;;;;;;;5052394;28;20079;-69
2022/03/12 05:34:52;;;;;;;8.57;0.77;;;;;;;;;;5052293;28;20516;-69
2022/03/12 05:37:21;;;;;;;7.25;1.02;;;;;;;;;;5052345;28;20416;-69
2022/03/12 05:39:55;;;;;;;7.10;0.82;;;;;;;;;;5052522;28;20480;-69
2022/03/12 05:42:22;;;;;;;9.13;1.27;;;;;;;;;;5052555;28;20444;-70
2022/03/12 05:44:50;;;;;;;14.35;1.35;;;;;;;;;;5051058;28;20091;-70
2022/03/12 05:47:18;;;;;;;7.97;0.70;;;;;;;;;;5052328;28;20258;-70
2022/03/12 05:49:44;;;;;;;;;;;;;;;;;;5052476;28;20071;-70
2022/03/12 05:52:11;;;;;;;8.43;0.80;;;;;;;;;;5052212;28;19978;-70
2022/03/12 05:54:37;;;;;;;6.72;1.00;;;;;;;;;;5051956;28;20508;-70
2022/03/12 05:57:04;;;;;;;6.28;0.98;;;;;;;;;;5052220;28;20045;-70
2022/03/12 05:59:30;;;;;;;8.30;1.67;;;;;;;;;;5052208;28;20106;-70
2022/03/12 06:01:57;;;;;;;13.00;1.42;;;;;;;;;;5052132;28;20064;-70
2022/03/12 06:04:27;;;;;;;10.50;1.42;;;;;;;;;;5051702;28;20052;-70
2022/03/12 06:06:54;;;;;;;11.40;1.65;;;;;;;;;;5051047;28;20102;-70
2022/03/12 06:09:20;;;;;;;15.27;1.42;;;;;;;;;;5052035;28;20406;-70
2022/03/12 06:11:47;;;;;;;13.18;1.60;;;;;;;;;;5051740;28;20613;-70
2022/03/12 06:14:16;;;;;;;11.00;1.05;;;;;;;;;;5051820;28;20099;-70
2022/03/12 06:16:49;;;;;;;12.13;1.85;;;;;;;;;;5051910;28;20053;-70
2022/03/12 06:19:16;;;;;;;10.93;1.00;;;;;;;;;;5051927;28;20111;-70
2022/03/12 06:21:42;;;;;;;16.25;1.63;;;;;;;;;;5050604;28;20049;-70
2022/03/12 06:24:09;;;;;;;8.25;1.23;;;;;;;;;;5051710;28;20106;-70
2022/03/12 06:26:36;;;;;;;10.02;1.58;;;;;;;;;;5051754;28;20048;-70
2022/03/12 06:29:03;;;;;;;9.23;1.17;;;;;;;;;;5051542;28;20485;-70
2022/03/12 06:31:31;;;;;;;9.07;1.35;;;;;;;;;;5051528;28;20558;-70
2022/03/12 06:33:58;;;;;;;11.90;1.30;;;;;;;;;;5051596;28;20056;-70
2022/03/12 06:36:25;;;;;;;8.85;1.90;;;;;;;;;;5051614;28;20094;-70
2022/03/12 06:38:52;;;;;;;6.38;0.93;;;;;;;;;;5051384;28;20508;-70
2022/03/12 06:41:20;;;;;;;8.50;1.10;;;;;;;;;;5051678;28;20075;-70
2022/03/12 06:43:46;;;;;;;;;;;;;;;;;;5050850;28;20049;-70
2022/03/12 06:46:14;;;;;;;11.55;1.70;;;;;;;;;;5051282;28;19943;-69
2022/03/12 06:48:43;;;;;;;7.85;1.02;;;;;;;;;;5051319;28;20048;-69
2022/03/12 06:51:13;;;;;;;6.25;0.70;;;;;;;;;;5051410;28;20122;-69
2022/03/12 06:53:39;;;;;;;11.38;1.70;;;;;;;;;;5050062;28;20110;-70
2022/03/12 06:56:07;;;;;;;8.32;1.02;;;;;;;;;;5051426;28;20444;-70
2022/03/12 06:58:34;;;;;;;9.27;1.02;;;;;;;;;;5050253;28;20048;-69
2022/03/12 07:01:01;;;;;;;6.10;1.42;;;;;;;;;;5051358;28;20456;-69
2022/03/12 07:03:28;;;;;;;8.35;1.23;;;;;;;;;;5051325;28;20049;-69
2022/03/12 07:05:54;;;;;;;5.80;0.90;;;;;;;;;;5050948;28;20049;-69
2022/03/12 07:08:22;;;;;;;9.50;1.00;;;;;;;;;;5051127;28;20103;-69
2022/03/12 07:10:49;;;;;;;6.57;0.93;;;;;;;;;;5051281;28;20040;-69
2022/03/12 07:13:16;;;;;;;10.90;1.10;;;;;;;;;;5051425;28;20107;-70
2022/03/12 07:15:43;;;;;;;4.35;0.77;;;;;;;;;;5051418;28;20056;-70
2022/03/12 07:18:10;;;;;;;5.20;0.97;;;;;;;;;;5053023;28;20056;-69
2022/03/12 07:20:36;;;;;;;10.43;0.98;;;;;;;;;;5055528;28;20087;-70
2022/03/12 07:23:03;;;;;;;10.55;2.35;;;;;;;;;;5054898;28;20091;-69
2022/03/12 07:25:29;;;;;;;5.40;1.00;;;;;;;;;;5054801;28;20049;-69
2022/03/12 07:27:56;;;;;;;15.07;1.35;;;;;;;;;;5054630;28;20041;-69
2022/03/12 07:30:22;;;;;;;6.43;1.13;;;;;;;;;;5053661;28;20079;-69
2022/03/12 07:32:49;;;;;;;6.47;1.10;;;;;;;;;;5054897;28;20095;-69
2022/03/12 07:35:17;;;;;;;6.70;1.50;;;;;;;;;;5054933;28;20045;-69
2022/03/12 07:37:44;;;;;;;8.55;1.25;;;;;;;;;;5054622;28;20052;-69
2022/03/12 07:40:12;;;;;;;6.18;1.10;;;;;;;;;;5054715;28;20045;-69
2022/03/12 07:42:39;;;;;;;10.65;1.75;;;;;;;;;;5054546;28;20052;-69
2022/03/12 07:45:07;;;;;;;7.15;1.17;;;;;;;;;;5054717;28;20541;-69
2022/03/12 07:47:34;;;;;;;6.45;1.58;;;;;;;;;;5054654;28;20041;-69
2022/03/12 07:50:01;;;;;;;5.63;0.75;;;;;;;;;;5054614;28;20053;-69
2022/03/12 07:52:28;;;;;;;10.27;0.67;;;;;;;;;;5054611;28;20428;-69
2022/03/12 07:54:54;;;;;;;5.03;0.90;;;;;;;;;;5053070;28;20106;-69
2022/03/12 07:57:26;;;;;;;6.80;1.63;;;;;;;;;;5054235;28;20114;-70
2022/03/12 07:59:56;;;;;;;5.38;0.73;;;;;;;;;;5052176;28;20540;-69
2022/03/12 08:02:23;;;;;;;9.43;0.95;;;;;;;;;;5039245;28;20107;-68
2022/03/12 08:04:49;;;;;;;9.02;1.02;;;;;;;;;;5044211;28;20052;-69
2022/03/12 08:07:16;;;;;;;9.68;1.30;;;;;;;;;;5034012;28;20049;-69
2022/03/12 08:09:42;;;;;;;7.55;0.93;;;;;;;;;;5033691;28;20123;-69
2022/03/12 08:12:09;;;;;;;9.98;1.55;;;;;;;;;;5033207;28;20444;-69
2022/03/12 08:14:35;;;;;;;10.27;1.20;;;;;;;;;;5032845;28;20045;-69
2022/03/12 08:17:02;;;;;;;9.43;1.27;;;;;;;;;;5033371;28;20046;-69
2022/03/12 08:19:29;;;;;;;4.65;0.98;;;;;;;;;;5033790;28;20087;-69
2022/03/12 08:21:57;;;;;;;8.95;1.05;;;;;;;;;;5050574;28;20075;-68
2022/03/12 08:24:23;;;;;;;;;;;;;;;;;;5054074;28;20049;-69
2022/03/12 08:26:50;;;;;;;5.65;1.20;;;;;;;;;;5053804;28;19970;-70
2022/03/12 08:29:18;;;;;;;5.07;0.60;;;;;;;;;;5035380;28;20045;-69
2022/03/12 08:31:45;;;;;;;7.68;0.80;;;;;;;;;;5053891;28;20045;-68
2022/03/12 08:34:11;;;;;;;5.10;0.80;;;;;;;;;;5039106;28;20078;-69
2022/03/12 08:36:38;;;;;;;4.68;0.93;;;;;;;;;;5053513;28;20057;-69
2022/03/12 08:39:05;;;;;;;7.00;1.30;;;;;;;;;;5053477;28;20103;-69
2022/03/12 08:41:34;;;;;;;5.17;0.70;;;;;;;;;;5053403;28;20053;-69
2022/03/12 08:44:01;;;;;;;3.92;0.95;;;;;;;;;;5052008;28;20053;-66
2022/03/12 08:46:28;;;;;;;5.55;0.85;;;;;;;;;;5053623;28;20444;-66
2022/03/12 08:48:54;;;;;;;5.07;0.88;;;;;;;;;;5053422;28;20047;-66
2022/03/12 08:51:21;;;;;;;4.75;1.05;;;;;;;;;;5043182;28;20562;-67
2022/03/12 08:53:47;;;;;;;4.32;0.88;;;;;;;;;;5035120;28;20053;-66
2022/03/12 08:56:14;;;;;;;4.60;0.77;;;;;;;;;;5034087;28;20053;-66
2022/03/12 08:58:41;;;;;;;4.90;0.60;;;;;;;;;;5037048;28;20475;-67
2022/03/12 09:01:08;;;;;;;3.55;0.63;;;;;;;;;;5038370;28;20409;-67
2022/03/12 09:03:36;;;;;;;5.28;1.10;;;;;;;;;;5033186;28;20077;-67
2022/03/12 09:06:03;;;;;;;6.55;0.95;;;;;;;;;;5049661;28;20057;-67
2022/03/12 09:08:29;;;;;;;4.17;0.73;;;;;;;;;;5040825;28;20060;-67
2022/03/12 09:10:56;;;;;;;5.30;0.85;;;;;;;;;;5052951;28;20053;-67
2022/03/12 09:13:22;;;;;;;5.15;1.75;;;;;;;;;;5053088;28;20059;-67
2022/03/12 09:15:49;;;;;;;6.15;1.20;;;;;;;;;;5053048;28;20079;-67
2022/03/12 09:18:16;;;;;;;4.70;0.87;;;;;;;;;;5031936;28;20413;-67
2022/03/12 09:20:48;;;;;;;3.53;0.80;;;;;;;;;;5038515;28;20285;-67
2022/03/12 09:23:19;;;;;;;4.15;0.80;;;;;;;;;;5052878;28;20045;-66
2022/03/12 09:25:46;;;;;;;4.05;0.80;;;;;;;;;;5052449;28;20041;-67
2022/03/12 09:28:13;;;;;;;3.85;0.82;;;;;;;;;;5050478;28;20049;-67
2022/03/12 09:30:39;;;;;;;6.00;1.08;;;;;;;;;;5031608;28;20045;-67
2022/03/12 09:33:06;;;;;;;4.90;1.20;;;;;;;;;;5030736;28;20524;-67
2022/03/12 09:35:34;;;;;;;3.08;0.90;;;;;;;;;;5036450;28;20045;-67
2022/03/12 09:38:01;;;;;;;;;;;;;;;;;;5030738;28;20508;-67
2022/03/12 09:40:29;;;;;;;4.32;1.17;;;;;;;;;;5032098;28;19960;-68
2022/03/12 09:42:55;;;;;;;3.83;0.88;;;;;;;;;;5032045;28;20107;-66
2022/03/12 09:45:22;;;;;;;3.80;0.90;;;;;;;;;;5031900;28;20099;-67
2022/03/12 09:47:49;;;;;;;4.78;0.95;;;;;;;;;;5038564;28;20053;-68
2022/03/12 09:50:16;;;;;;;4.93;0.82;;;;;;;;;;5051981;28;20072;-69
2022/03/12 09:52:44;;;;;;;5.50;1.10;;;;;;;;;;5052356;28;20049;-67
2022/03/12 09:55:11;;;;;;;4.28;0.98;;;;;;;;;;5052211;28;20107;-67
2022/03/12 09:57:41;;;;;;;7.20;1.00;;;;;;;;;;5051927;28;20049;-67
2022/03/12 10:00:08;;;;;;;6.10;0.82;;;;;;;;;;5052060;28;20103;-66
2022/03/12 10:02:35;;;;;;;8.20;1.05;;;;;;;;;;5052872;28;20056;-66
2022/03/12 10:05:02;;;;;;;6.93;1.03;;;;;;;;;;5052092;28;20055;-66
2022/03/12 10:07:28;;;;;;;6.55;1.40;;;;;;;;;;5051786;28;20123;-66
2022/03/12 10:09:54;;;;;;;7.05;1.02;;;;;;;;;;5052002;28;20455;-67
2022/03/12 10:12:22;;;;;;;;;;;;;;;;;;5052167;28;20049;-67
2022/03/12 10:14:49;;;;;;;5.18;0.85;;;;;;;;;;5051724;28;19974;-68
2022/03/12 10:17:18;;;;;;;3.95;0.77;;;;;;;;;;5051597;28;20099;-67
2022/03/12 10:19:45;;;;;;;4.05;0.57;;;;;;;;;;5051717;28;20099;-67
2022/03/12 10:22:12;;;;;;;4.60;1.00;;;;;;;;;;5032035;28;20049;-68
2022/03/12 10:24:38;;;;;;;2.60;0.73;;;;;;;;;;5031138;28;20068;-68
2022/03/12 10:27:08;;;;;;;2.67;0.50;;;;;;;;;;5030134;28;20049;-67
2022/03/12 10:29:34;;;;;;;5.22;0.88;;;;;;;;;;5031192;28;20391;-68
2022/03/12 10:32:21;;;;;;;5.25;0.88;;;;;;;;;;5031305;28;20045;-69
2022/03/12 10:34:59;;;;;;;4.05;0.52;;;;;;;;;;5031108;28;20107;-68
2022/03/12 10:37:27;;;;;;;4.15;0.70;;;;;;;;;;5014382;28;20413;-68
2022/03/12 10:40:03;;;;;;;4.85;0.50;;;;;;;;;;5029798;28;20523;-68
2022/03/12 10:42:31;;;;;;;4.55;0.60;;;;;;;;;;5031199;28;20137;-69
2022/03/12 10:45:06;;;;;;;3.08;0.73;;;;;;;;;;5031100;28;20050;-70
2022/03/12 10:47:36;;;;;;;3.85;0.80;;;;;;;;;;5015140;28;20046;-70
2022/03/12 10:50:05;;;;;;;2.97;0.65;;;;;;;;;;5023847;28;20489;-70
2022/03/12 10:52:32;;;;;;;2.83;0.40;;;;;;;;;;5033472;28;20098;-69
2022/03/12 10:55:00;;;;;;;4.30;0.60;;;;;;;;;;5054295;28;20060;-70
2022/03/12 10:57:27;;;;;;;3.08;0.45;;;;;;;;;;5053828;28;20049;-70
2022/03/12 10:59:54;;;;;;;4.47;0.73;;;;;;;;;;5055380;28;20049;-70
2022/03/12 11:02:20;;;;;;;3.20;0.60;;;;;;;;;;5053801;28;20056;-69
2022/03/12 11:04:47;;;;;;;3.17;0.60;;;;;;;;;;5055484;28;20053;-69
2022/03/12 11:07:21;;;;;;;2.87;0.47;;;;;;;;;;5034567;28;20112;-69
2022/03/12 11:09:47;;;;;;;2.33;0.40;;;;;;;;;;5045802;28;20482;-68
2022/03/12 11:12:35;;;;;;;3.57;0.70;;;;;;;;;;5050572;28;20048;-74
2022/03/12 11:15:16;;;;;;;4.40;0.40;;;;;;;;;;5054776;28;20061;-69
2022/03/12 11:17:43;;;;;;;4.93;0.63;;;;;;;;;;5054508;28;20136;-68
2022/03/12 11:20:14;;;;;;;2.97;0.82;;;;;;;;;;5054455;28;20053;-71
2022/03/12 11:22:40;;;;;;;2.78;0.40;;;;;;;;;;5054424;28;20489;-69
2022/03/12 11:25:09;;;;;;;3.08;0.30;;;;;;;;;;5053875;28;20099;-69
2022/03/12 11:27:35;;;;;;;1.00;0.10;;;;;;;;;;5051656;28;20557;-69
2022/03/12 11:30:08;;;;;;;1.40;0.43;;;;;;;;;;5054319;28;20118;-70
2022/03/12 11:32:44;;;;;;;2.35;0.30;;;;;;;;;;5054152;28;20459;-69
2022/03/12 11:35:13;;;;;;;2.65;0.50;;;;;;;;;;5053554;28;20061;-68
2022/03/12 11:37:41;;;;;;;1.83;0.30;;;;;;;;;;5054338;28;20139;-69
2022/03/12 11:40:11;;;;;;;1.13;0.30;;;;;;;;;;5053970;28;20076;-70
2022/03/12 11:42:39;;;;;;;3.75;0.50;;;;;;;;;;5052700;28;20048;-69
2022/03/12 11:45:09;;;;;;;4.57;0.47;;;;;;;;;;5053804;28;20041;-70
2022/03/12 11:47:37;;;;;;;1.77;0.50;;;;;;;;;;5053643;28;20090;-70
2022/03/12 11:50:05;;;;;;;1.58;0.57;;;;;;;;;;5034502;28;20041;-69
2022/03/12 11:52:31;;;;;;;;;;;;;;;;;;5047323;28;20049;-69
2022/03/12 11:55:02;;;;;;;2.65;0.30;;;;;;;;;;5040359;28;19925;-69
2022/03/12 11:57:30;;;;;;;2.28;0.57;;;;;;;;;;5033869;28;20512;-70
2022/03/12 12:00:00;;;;;;;2.63;0.60;;;;;;;;;;5054196;28;20053;-72
2022/03/12 12:02:29;;;;;;;2.10;0.45;;;;;;;;;;5042651;28;20049;-70
2022/03/12 12:05:08;;;;;;;2.72;0.47;;;;;;;;;;5043342;28;20049;-70
2022/03/12 12:07:38;;;;;;;3.03;0.60;;;;;;;;;;5044499;28;20515;-71
2022/03/12 12:10:06;;;;;;;2.13;0.30;;;;;;;;;;5053644;28;20055;-70
2022/03/12 12:12:41;;;;;;;5.95;0.90;;;;;;;;;;5053714;28;20060;-69
2022/03/12 12:15:14;;;;;;;3.08;0.52;;;;;;;;;;5051956;28;20136;-71
2022/03/12 12:17:43;;;;;;;4.18;0.40;;;;;;;;;;5053334;28;20516;-71
2022/03/12 12:20:10;;;;;;;4.97;0.50;;;;;;;;;;5053226;28;20065;-70
2022/03/12 12:22:37;;;;;;;;;;;;;;;;;;5048821;28;20045;-71
2022/03/12 12:25:04;;;;;;;5.60;0.77;;;;;;;;;;5046015;28;19978;-71
2022/03/12 12:27:41;;;;;;;4.55;0.57;;;;;;;;;;5043097;28;20046;-71
2022/03/12 12:30:09;;;;;;;;;;;;;;;;;;5045921;28;20045;-71
2022/03/12 12:32:44;;;;;;;4.28;0.60;;;;;;;;;;5052881;28;20343;-71
2022/03/12 12:35:13;;;;;;;3.55;0.98;;;;;;;;;;5053943;28;20075;-71
2022/03/12 12:37:42;;;;;;;3.85;0.68;;;;;;;;;;5053239;28;20094;-70
2022/03/12 12:40:16;;;;;;;8.38;0.93;;;;;;;;;;5052947;28;20501;-69
2022/03/12 12:42:43;;;;;;;6.95;1.08;;;;;;;;;;5053061;28;20036;-70
2022/03/12 12:45:11;;;;;;;9.20;1.70;;;;;;;;;;5032253;28;20119;-70
2022/03/12 12:47:38;;;;;;;5.07;0.70;;;;;;;;;;5032994;28;20479;-69
2022/03/12 12:50:05;;;;;;;5.85;1.38;;;;;;;;;;5030855;28;20053;-70
2022/03/12 12:52:34;;;;;;;4.18;0.88;;;;;;;;;;5032194;28;20573;-71
2022/03/12 12:55:05;;;;;;;5.22;1.15;;;;;;;;;;5032565;28;20041;-71
2022/03/12 12:57:41;;;;;;;6.63;1.13;;;;;;;;;;5039031;28;20055;-71
2022/03/12 13:00:27;;;;;;;6.88;0.93;;;;;;;;;;5052743;28;20447;-72
2022/03/12 13:02:56;;;;;;;4.82;0.98;;;;;;;;;;5051810;28;20052;-72
2022/03/12 13:05:42;;;;;;;5.63;1.27;;;;;;;;;;5038229;28;20049;-71
2022/03/12 13:08:09;;;;;;;7.07;1.30;;;;;;;;;;5046755;28;20387;-71
2022/03/12 13:10:41;;;;;;;3.45;0.82;;;;;;;;;;5032116;28;20057;-71
2022/03/12 13:13:09;;;;;;;6.53;1.05;;;;;;;;;;5045848;28;20068;-72
2022/03/12 13:15:37;;;;;;;3.42;0.65;;;;;;;;;;5051779;28;20144;-72
2022/03/12 13:18:19;;;;;;;4.07;0.70;;;;;;;;;;5044320;28;20045;-71
2022/03/12 13:20:46;;;;;;;4.50;1.13;;;;;;;;;;5047013;28;20408;-72
2022/03/12 13:23:16;;;;;;;5.18;1.10;;;;;;;;;;5052422;28;20416;-72
2022/03/12 13:25:47;;;;;;;4.15;0.60;;;;;;;;;;5041230;28;20081;-73
2022/03/12 13:28:34;;;;;;;7.65;1.02;;;;;;;;;;5049900;28;20045;-72
2022/03/12 13:31:16;;;;;;;5.00;1.13;;;;;;;;;;5044849;28;20046;-72
2022/03/12 13:33:43;;;;;;;4.63;1.17;;;;;;;;;;5034903;28;20056;-74
2022/03/12 13:36:21;;;;;;;6.75;1.20;;;;;;;;;;5031705;28;20049;-72
2022/03/12 13:38:47;;;;;;;;;;;;;;;;;;5032008;28;20049;-72
2022/03/12 13:41:15;;;;;;;3.90;0.77;;;;;;;;;;5043812;28;19943;-72
2022/03/12 13:43:41;;;;;;;;;;;;;;;;;;5051979;28;20312;-72
2022/03/12 13:46:08;;;;;;;5.47;0.87;;;;;;;;;;5051850;28;20019;-72
2022/03/12 13:48:34;;;;;;;4.65;0.90;;;;;;;;;;5046080;28;20119;-72
2022/03/12 13:51:01;;;;;;;6.55;0.88;;;;;;;;;;5032361;28;20115;-77
2022/03/12 13:53:29;;;;;;;4.35;0.63;;;;;;;;;;5043914;28;20045;-71
2022/03/12 13:56:16;;;;;;;5.53;1.00;;;;;;;;;;5050589;28;20056;-72
2022/03/12 13:58:42;;;;;;;7.63;1.00;;;;;;;;;;5051272;28;20614;-77
2022/03/12 14:01:10;;;;;;;6.40;0.93;;;;;;;;;;5051982;28;20323;-77
2022/03/12 14:03:45;;;;;;;6.85;1.33;;;;;;;;;;5030743;28;20042;-72
2022/03/12 14:06:31;;;;;;;4.63;0.80;;;;;;;;;;5051108;28;20052;-72
2022/03/12 14:09:04;;;;;;;4.18;1.17;;;;;;;;;;5037838;28;20042;-72
2022/03/12 14:11:35;;;;;;;5.25;0.90;;;;;;;;;;5031920;28;20052;-72
2022/03/12 14:14:04;;;;;;;7.50;0.93;;;;;;;;;;5045175;28;20049;-70
2022/03/12 14:16:31;;;;;;;7.00;1.10;;;;;;;;;;5051685;28;20053;-71
2022/03/12 14:19:00;;;;;;;;;;;;;;;;;;5052070;28;20045;-70
2022/03/12 14:21:41;;;;;;;3.05;0.85;;;;;;;;;;5051818;28;19920;-70
2022/03/12 14:24:16;;;;;;;6.85;1.25;;;;;;;;;;5047884;28;20053;-70
2022/03/12 14:26:43;;;;;;;4.47;1.00;;;;;;;;;;5030743;28;20164;-70
2022/03/12 14:29:10;;;;;;;4.75;0.80;;;;;;;;;;5030975;28;20463;-70
2022/03/12 14:31:37;;;;;;;4.18;0.90;;;;;;;;;;5031169;28;20042;-71
2022/03/12 14:34:05;;;;;;;5.03;1.23;;;;;;;;;;5031166;28;20547;-70
2022/03/12 14:36:32;;;;;;;5.55;1.35;;;;;;;;;;5031459;28;20053;-70
2022/03/12 14:39:03;;;;;;;5.23;0.80;;;;;;;;;;5031448;28;20099;-70
2022/03/12 14:41:29;;;;;;;3.50;0.93;;;;;;;;;;5031378;28;20100;-70
2022/03/12 14:43:58;;;;;;;4.20;1.00;;;;;;;;;;5031371;28;20077;-70
2022/03/12 14:46:24;;;;;;;3.23;0.93;;;;;;;;;;5031263;28;20456;-70
2022/03/12 14:48:51;;;;;;;4.38;0.77;;;;;;;;;;5031322;28;20144;-70
2022/03/12 14:51:18;;;;;;;3.53;0.60;;;;;;;;;;5026196;28;20041;-72
2022/03/12 14:53:44;;;;;;;;;;;;;;;;;;5049855;28;20274;-72